createdAt,value
2017-07-12T00:00:12.525Z,0
2017-07-12T00:00:38.112Z,0
2017-07-12T00:01:03.685Z,0
2017-07-12T00:01:29.333Z,0
2017-07-12T00:01:54.897Z,0
2017-07-12T00:02:20.695Z,0
2017-07-12T00:02:46.247Z,0
2017-07-12T00:03:11.804Z,0
2017-07-12T00:03:37.372Z,0
2017-07-12T00:04:02.948Z,0
2017-07-12T00:04:28.505Z,0
2017-07-12T00:04:54.093Z,0
2017-07-12T00:05:19.646Z,0
2017-07-12T00:05:45.221Z,0
2017-07-12T00:06:10.817Z,0
2017-07-12T00:06:36.390Z,0
2017-07-12T00:07:01.987Z,0
2017-07-12T00:07:27.561Z,0
2017-07-12T00:07:53.140Z,0
2017-07-12T00:08:18.724Z,0
2017-07-12T00:08:44.341Z,0
2017-07-12T00:09:09.975Z,0
2017-07-12T00:09:35.540Z,0
2017-07-12T00:10:01.095Z,0
2017-07-12T00:10:26.662Z,0
2017-07-12T00:10:52.225Z,0
2017-07-12T00:11:17.800Z,0
2017-07-12T00:11:43.445Z,0
2017-07-12T00:12:09.003Z,0
2017-07-12T00:12:34.573Z,0
2017-07-12T00:13:00.238Z,0
2017-07-12T00:13:25.812Z,0
2017-07-12T00:13:51.353Z,0
2017-07-12T00:14:16.937Z,0
2017-07-12T00:14:42.496Z,0
2017-07-12T00:15:08.047Z,0
2017-07-12T00:15:33.611Z,0
2017-07-12T00:15:59.205Z,0
2017-07-12T00:16:24.764Z,0
2017-07-12T00:16:50.391Z,0
2017-07-12T00:17:15.964Z,0
2017-07-12T00:17:41.514Z,0
2017-07-12T00:18:07.067Z,0
2017-07-12T00:18:32.749Z,0
2017-07-12T00:18:58.331Z,0
2017-07-12T00:19:23.880Z,0
2017-07-12T00:19:49.491Z,0
2017-07-12T00:20:15.045Z,0
2017-07-12T00:20:40.590Z,0
2017-07-12T00:21:06.160Z,0
2017-07-12T00:21:31.709Z,0
2017-07-12T00:21:57.308Z,0
2017-07-12T00:22:22.872Z,0
2017-07-12T00:22:48.433Z,0
2017-07-12T00:23:14.002Z,0
2017-07-12T00:23:39.573Z,0
2017-07-12T00:24:05.141Z,0
2017-07-12T00:24:30.684Z,0
2017-07-12T00:24:56.255Z,0
2017-07-12T00:25:21.814Z,0
2017-07-12T00:25:47.462Z,0
2017-07-12T00:26:13.133Z,0
2017-07-12T00:26:38.695Z,0
2017-07-12T00:27:04.307Z,0
2017-07-12T00:27:29.829Z,0
2017-07-12T00:27:55.406Z,0
2017-07-12T00:28:20.972Z,0
2017-07-12T00:28:46.559Z,0
2017-07-12T00:29:12.217Z,0
2017-07-12T00:29:37.808Z,0
2017-07-12T00:30:03.374Z,0
2017-07-12T00:30:28.981Z,0
2017-07-12T00:30:54.485Z,0
2017-07-12T00:31:20.065Z,0
2017-07-12T00:31:45.718Z,0
2017-07-12T00:32:11.291Z,0
2017-07-12T00:32:36.846Z,0
2017-07-12T00:33:02.409Z,0
2017-07-12T00:33:27.984Z,0
2017-07-12T00:33:53.543Z,0
2017-07-12T00:34:19.121Z,0
2017-07-12T00:34:44.691Z,0
2017-07-12T00:35:10.272Z,0
2017-07-12T00:35:35.915Z,0
2017-07-12T00:36:01.461Z,0
2017-07-12T00:36:27.018Z,0
2017-07-12T00:36:52.583Z,0
2017-07-12T00:37:18.180Z,0
2017-07-12T00:37:43.741Z,0
2017-07-12T00:38:09.329Z,0
2017-07-12T00:38:34.917Z,0
2017-07-12T00:39:00.467Z,0
2017-07-12T00:39:26.045Z,0
2017-07-12T00:39:51.614Z,0
2017-07-12T00:40:17.173Z,0
2017-07-12T00:40:42.729Z,0
2017-07-12T00:41:08.393Z,0
2017-07-12T00:41:33.965Z,0
2017-07-12T00:41:59.580Z,0
2017-07-12T00:42:25.149Z,0
2017-07-12T00:42:50.696Z,0
2017-07-12T00:43:16.279Z,0
2017-07-12T00:43:41.819Z,0
2017-07-12T00:44:07.397Z,0
2017-07-12T00:44:32.975Z,0
2017-07-12T00:44:58.565Z,0
2017-07-12T00:45:24.149Z,0
2017-07-12T00:45:49.733Z,0
2017-07-12T00:46:15.317Z,0
2017-07-12T00:46:40.882Z,0
2017-07-12T00:47:06.441Z,0
2017-07-12T00:47:32.052Z,0
2017-07-12T00:47:57.617Z,0
2017-07-12T00:48:23.185Z,0
2017-07-12T00:48:48.816Z,0
2017-07-12T00:49:14.390Z,0
2017-07-12T00:49:39.954Z,0
2017-07-12T00:50:05.498Z,0
2017-07-12T00:50:31.072Z,0
2017-07-12T00:50:56.619Z,0
2017-07-12T00:51:22.205Z,0
2017-07-12T00:51:47.786Z,0
2017-07-12T00:52:13.349Z,0
2017-07-12T00:52:39.027Z,0
2017-07-12T00:53:04.609Z,0
2017-07-12T00:53:30.143Z,0
2017-07-12T00:53:55.716Z,0
2017-07-12T00:54:21.289Z,0
2017-07-12T00:54:46.853Z,0
2017-07-12T00:55:12.426Z,0
2017-07-12T00:55:37.984Z,0
2017-07-12T00:56:03.540Z,0
2017-07-12T00:56:29.096Z,0
2017-07-12T00:56:54.688Z,0
2017-07-12T00:57:20.241Z,0
2017-07-12T00:57:45.856Z,0
2017-07-12T00:58:11.416Z,0
2017-07-12T00:58:37.017Z,0
2017-07-12T00:59:02.573Z,0
2017-07-12T00:59:28.147Z,0
2017-07-12T00:59:53.713Z,0
2017-07-12T01:00:19.292Z,0
2017-07-12T01:00:44.858Z,0
2017-07-12T01:01:10.438Z,0
2017-07-12T01:01:36.020Z,0
2017-07-12T01:02:01.710Z,0
2017-07-12T01:02:27.308Z,0
2017-07-12T01:02:52.869Z,0
2017-07-12T01:03:18.440Z,0
2017-07-12T01:03:44.002Z,0
2017-07-12T01:04:09.563Z,0
2017-07-12T01:04:35.254Z,0
2017-07-12T01:05:00.812Z,0
2017-07-12T01:05:26.381Z,0
2017-07-12T01:05:51.948Z,0
2017-07-12T01:06:17.501Z,0
2017-07-12T01:06:43.071Z,0
2017-07-12T01:07:08.706Z,0
2017-07-12T01:07:34.263Z,0
2017-07-12T01:07:59.816Z,0
2017-07-12T01:08:25.382Z,0
2017-07-12T01:08:50.947Z,0
2017-07-12T01:09:16.556Z,0
2017-07-12T01:09:42.143Z,0
2017-07-12T01:10:07.770Z,0
2017-07-12T01:10:33.344Z,0
2017-07-12T01:10:58.900Z,0
2017-07-12T01:11:24.481Z,0
2017-07-12T01:11:50.042Z,0
2017-07-12T01:12:15.608Z,0
2017-07-12T01:12:41.157Z,0
2017-07-12T01:13:06.719Z,0
2017-07-12T01:13:32.308Z,0
2017-07-12T01:13:57.911Z,0
2017-07-12T01:14:23.476Z,0
2017-07-12T01:14:49.071Z,0
2017-07-12T01:15:14.629Z,0
2017-07-12T01:15:40.202Z,0
2017-07-12T01:16:05.767Z,0
2017-07-12T01:16:31.412Z,0
2017-07-12T01:16:56.974Z,0
2017-07-12T01:17:22.537Z,0
2017-07-12T01:17:48.089Z,0
2017-07-12T01:18:13.653Z,0
2017-07-12T01:18:39.215Z,0
2017-07-12T01:19:04.787Z,0
2017-07-12T01:19:30.332Z,0
2017-07-12T01:19:55.901Z,0
2017-07-12T01:20:21.534Z,0
2017-07-12T01:20:47.096Z,0
2017-07-12T01:21:12.646Z,0
2017-07-12T01:21:38.216Z,0
2017-07-12T01:22:03.752Z,0
2017-07-12T01:22:29.296Z,0
2017-07-12T01:22:54.881Z,0
2017-07-12T01:23:20.431Z,0
2017-07-12T01:23:46.047Z,0
2017-07-12T01:24:11.733Z,0
2017-07-12T01:24:37.312Z,0
2017-07-12T01:25:02.883Z,0
2017-07-12T01:25:28.524Z,0
2017-07-12T01:25:54.089Z,0
2017-07-12T01:26:19.674Z,0
2017-07-12T01:26:45.230Z,0
2017-07-12T01:27:10.786Z,0
2017-07-12T01:27:36.365Z,0
2017-07-12T01:28:01.931Z,0
2017-07-12T01:28:27.502Z,0
2017-07-12T01:28:53.052Z,0
2017-07-12T01:29:18.614Z,0
2017-07-12T01:29:44.178Z,0
2017-07-12T01:30:09.735Z,0
2017-07-12T01:30:35.291Z,0
2017-07-12T01:31:00.847Z,0
2017-07-12T01:31:26.416Z,0
2017-07-12T01:31:51.970Z,0
2017-07-12T01:32:17.541Z,0
2017-07-12T01:32:43.101Z,0
2017-07-12T01:33:08.663Z,0
2017-07-12T01:33:34.223Z,0
2017-07-12T01:33:59.782Z,0
2017-07-12T01:34:25.359Z,0
2017-07-12T01:34:50.943Z,0
2017-07-12T01:35:16.510Z,0
2017-07-12T01:35:42.073Z,0
2017-07-12T01:36:07.641Z,0
2017-07-12T01:36:33.181Z,0
2017-07-12T01:36:58.856Z,0
2017-07-12T01:37:24.490Z,0
2017-07-12T01:37:50.049Z,0
2017-07-12T01:38:15.602Z,0
2017-07-12T01:38:41.171Z,0
2017-07-12T01:39:06.761Z,0
2017-07-12T01:39:32.324Z,0
2017-07-12T01:39:57.911Z,0
2017-07-12T01:40:23.544Z,0
2017-07-12T01:40:49.109Z,0
2017-07-12T01:41:14.659Z,0
2017-07-12T01:41:40.272Z,0
2017-07-12T01:42:05.833Z,0
2017-07-12T01:42:31.452Z,0
2017-07-12T01:42:57.120Z,0
2017-07-12T01:43:22.684Z,0
2017-07-12T01:43:48.247Z,0
2017-07-12T01:44:13.814Z,0
2017-07-12T01:44:39.364Z,0
2017-07-12T01:45:04.918Z,0
2017-07-12T01:45:30.502Z,0
2017-07-12T01:45:56.061Z,0
2017-07-12T01:46:21.650Z,0
2017-07-12T01:46:47.206Z,0
2017-07-12T01:47:12.764Z,0
2017-07-12T01:47:38.378Z,0
2017-07-12T01:48:03.986Z,0
2017-07-12T01:48:29.552Z,0
2017-07-12T01:48:55.114Z,0
2017-07-12T01:49:20.739Z,0
2017-07-12T01:49:46.363Z,0
2017-07-12T01:50:11.916Z,0
2017-07-12T01:50:37.506Z,0
2017-07-12T01:51:03.068Z,0
2017-07-12T01:51:28.651Z,0
2017-07-12T01:51:54.211Z,0
2017-07-12T01:52:19.775Z,0
2017-07-12T01:52:45.324Z,0
2017-07-12T01:53:10.884Z,0
2017-07-12T01:53:36.445Z,0
2017-07-12T01:54:02.044Z,0
2017-07-12T01:54:27.609Z,0
2017-07-12T01:54:53.167Z,0
2017-07-12T01:55:18.719Z,0
2017-07-12T01:55:44.293Z,0
2017-07-12T01:56:09.853Z,0
2017-07-12T01:56:35.415Z,0
2017-07-12T01:57:00.967Z,0
2017-07-12T01:57:26.560Z,0
2017-07-12T01:57:52.140Z,0
2017-07-12T01:58:17.714Z,0
2017-07-12T01:58:43.329Z,0
2017-07-12T01:59:08.902Z,0
2017-07-12T01:59:34.461Z,0
2017-07-12T02:00:00.045Z,0
2017-07-12T02:00:25.615Z,0
2017-07-12T02:00:51.187Z,0
2017-07-12T02:01:16.740Z,0
2017-07-12T02:01:42.332Z,0
2017-07-12T02:02:07.968Z,0
2017-07-12T02:02:33.653Z,0
2017-07-12T02:02:59.224Z,0
2017-07-12T02:03:24.802Z,0
2017-07-12T02:03:50.355Z,0
2017-07-12T02:04:15.896Z,0
2017-07-12T02:04:41.447Z,0
2017-07-12T02:05:07.052Z,0
2017-07-12T02:05:32.604Z,0
2017-07-12T02:05:58.164Z,0
2017-07-12T02:06:23.862Z,0
2017-07-12T02:06:49.368Z,0
2017-07-12T02:07:14.983Z,0
2017-07-12T02:07:40.536Z,0
2017-07-12T02:08:06.101Z,0
2017-07-12T02:08:31.671Z,0
2017-07-12T02:08:57.233Z,0
2017-07-12T02:09:22.896Z,0
2017-07-12T02:09:48.450Z,0
2017-07-12T02:10:14.017Z,0
2017-07-12T02:10:39.601Z,0
2017-07-12T02:11:05.158Z,0
2017-07-12T02:11:30.722Z,0
2017-07-12T02:11:56.280Z,0
2017-07-12T02:12:21.844Z,0
2017-07-12T02:12:47.461Z,0
2017-07-12T02:13:13.044Z,0
2017-07-12T02:13:38.601Z,0
2017-07-12T02:14:04.175Z,0
2017-07-12T02:14:29.748Z,0
2017-07-12T02:14:55.303Z,0
2017-07-12T02:15:20.958Z,0
2017-07-12T02:15:46.529Z,0
2017-07-12T02:16:12.104Z,0
2017-07-12T02:16:37.660Z,0
2017-07-12T02:17:03.313Z,0
2017-07-12T02:17:28.873Z,0
2017-07-12T02:17:54.456Z,0
2017-07-12T02:18:20.012Z,0
2017-07-12T02:18:45.554Z,0
2017-07-12T02:19:11.161Z,0
2017-07-12T02:19:36.730Z,0
2017-07-12T02:20:02.293Z,0
2017-07-12T02:20:27.857Z,0
2017-07-12T02:20:53.433Z,0
2017-07-12T02:21:18.975Z,0
2017-07-12T02:21:44.565Z,0
2017-07-12T02:22:10.213Z,0
2017-07-12T02:22:35.763Z,0
2017-07-12T02:23:01.308Z,0
2017-07-12T02:23:26.860Z,0
2017-07-12T02:23:52.434Z,0
2017-07-12T02:24:17.999Z,0
2017-07-12T02:24:43.564Z,0
2017-07-12T02:25:09.175Z,0
2017-07-12T02:25:34.785Z,0
2017-07-12T02:26:00.340Z,0
2017-07-12T02:26:25.908Z,0
2017-07-12T02:26:51.502Z,0
2017-07-12T02:27:17.064Z,0
2017-07-12T02:27:42.744Z,0
2017-07-12T02:28:08.313Z,0
2017-07-12T02:28:33.871Z,0
2017-07-12T02:28:59.564Z,0
2017-07-12T02:29:25.068Z,0
2017-07-12T02:29:50.632Z,0
2017-07-12T02:30:16.231Z,0
2017-07-12T02:30:41.805Z,0
2017-07-12T02:31:07.393Z,0
2017-07-12T02:31:32.974Z,0
2017-07-12T02:31:58.547Z,0
2017-07-12T02:32:24.129Z,0
2017-07-12T02:32:49.714Z,0
2017-07-12T02:33:15.302Z,0
2017-07-12T02:33:40.861Z,0
2017-07-12T02:34:06.452Z,0
2017-07-12T02:34:32.034Z,0
2017-07-12T02:34:57.593Z,0
2017-07-12T02:35:23.167Z,0
2017-07-12T02:35:48.743Z,0
2017-07-12T02:36:14.306Z,0
2017-07-12T02:36:39.862Z,0
2017-07-12T02:37:05.426Z,0
2017-07-12T02:37:30.995Z,0
2017-07-12T02:37:56.553Z,0
2017-07-12T02:38:22.105Z,0
2017-07-12T02:38:47.668Z,0
2017-07-12T02:39:13.244Z,0
2017-07-12T02:39:38.819Z,0
2017-07-12T02:40:04.394Z,0
2017-07-12T02:40:29.986Z,0
2017-07-12T02:40:55.528Z,0
2017-07-12T02:41:21.093Z,0
2017-07-12T02:41:46.634Z,0
2017-07-12T02:42:12.190Z,0
2017-07-12T02:42:37.825Z,0
2017-07-12T02:43:03.418Z,0
2017-07-12T02:43:28.989Z,0
2017-07-12T02:43:54.553Z,0
2017-07-12T02:44:20.103Z,0
2017-07-12T02:44:45.685Z,0
2017-07-12T02:45:11.241Z,0
2017-07-12T02:45:36.878Z,0
2017-07-12T02:46:02.466Z,0
2017-07-12T02:46:28.026Z,0
2017-07-12T02:46:53.698Z,0
2017-07-12T02:47:19.257Z,0
2017-07-12T02:47:44.823Z,0
2017-07-12T02:48:10.445Z,0
2017-07-12T02:48:36.044Z,0
2017-07-12T02:49:01.602Z,0
2017-07-12T02:49:27.159Z,0
2017-07-12T02:49:52.725Z,0
2017-07-12T02:50:18.293Z,0
2017-07-12T02:50:43.917Z,0
2017-07-12T02:51:09.533Z,0
2017-07-12T02:51:35.088Z,0
2017-07-12T02:52:00.655Z,0
2017-07-12T02:52:26.210Z,0
2017-07-12T02:52:51.783Z,0
2017-07-12T02:53:17.354Z,0
2017-07-12T02:53:42.941Z,0
2017-07-12T02:54:08.509Z,0
2017-07-12T02:54:34.071Z,0
2017-07-12T02:54:59.695Z,0
2017-07-12T02:55:25.273Z,0
2017-07-12T02:55:50.829Z,0
2017-07-12T02:56:16.457Z,0
2017-07-12T02:56:42.014Z,0
2017-07-12T02:57:07.592Z,0
2017-07-12T02:57:33.141Z,0
2017-07-12T02:57:58.716Z,0
2017-07-12T02:58:24.327Z,0
2017-07-12T02:58:49.922Z,0
2017-07-12T02:59:15.484Z,0
2017-07-12T02:59:41.030Z,0
2017-07-12T03:00:06.584Z,0
2017-07-12T03:00:32.141Z,0
2017-07-12T03:00:57.708Z,0
2017-07-12T03:01:23.275Z,0
2017-07-12T03:01:48.823Z,0
2017-07-12T03:02:14.383Z,0
2017-07-12T03:02:39.964Z,0
2017-07-12T03:03:05.574Z,0
2017-07-12T03:03:31.129Z,0
2017-07-12T03:03:56.804Z,0
2017-07-12T03:04:22.428Z,0
2017-07-12T03:04:47.920Z,0
2017-07-12T03:05:13.493Z,0
2017-07-12T03:05:39.056Z,0
2017-07-12T03:06:04.612Z,0
2017-07-12T03:06:30.289Z,0
2017-07-12T03:06:55.932Z,0
2017-07-12T03:07:21.493Z,0
2017-07-12T03:07:47.076Z,0
2017-07-12T03:08:12.642Z,0
2017-07-12T03:08:38.182Z,0
2017-07-12T03:09:03.755Z,0
2017-07-12T03:09:29.313Z,0
2017-07-12T03:09:54.876Z,0
2017-07-12T03:10:20.430Z,0
2017-07-12T03:10:46.009Z,0
2017-07-12T03:11:11.563Z,0
2017-07-12T03:11:37.132Z,0
2017-07-12T03:12:02.841Z,0
2017-07-12T03:12:28.406Z,0
2017-07-12T03:12:53.952Z,0
2017-07-12T03:13:19.593Z,0
2017-07-12T03:13:45.184Z,0
2017-07-12T03:14:10.744Z,0
2017-07-12T03:14:36.324Z,0
2017-07-12T03:15:01.913Z,0
2017-07-12T03:15:27.485Z,0
2017-07-12T03:15:53.059Z,0
2017-07-12T03:16:18.625Z,0
2017-07-12T03:16:44.216Z,0
2017-07-12T03:17:09.783Z,0
2017-07-12T03:17:35.354Z,0
2017-07-12T03:18:00.903Z,0
2017-07-12T03:18:26.501Z,0
2017-07-12T03:18:52.083Z,0
2017-07-12T03:19:17.637Z,0
2017-07-12T03:19:43.237Z,0
2017-07-12T03:20:09.714Z,0
2017-07-12T03:20:35.505Z,0
2017-07-12T03:21:01.113Z,0
2017-07-12T03:21:26.711Z,0
2017-07-12T03:21:52.276Z,0
2017-07-12T03:22:17.835Z,0
2017-07-12T03:22:43.404Z,0
2017-07-12T03:23:08.957Z,0
2017-07-12T03:23:34.517Z,0
2017-07-12T03:24:00.060Z,0
2017-07-12T03:24:25.637Z,0
2017-07-12T03:24:51.297Z,0
2017-07-12T03:25:16.933Z,0
2017-07-12T03:25:42.500Z,0
2017-07-12T03:26:08.104Z,0
2017-07-12T03:26:33.639Z,0
2017-07-12T03:26:59.224Z,0
2017-07-12T03:27:24.778Z,0
2017-07-12T03:27:50.337Z,0
2017-07-12T03:28:15.903Z,0
2017-07-12T03:28:41.457Z,0
2017-07-12T03:29:07.059Z,0
2017-07-12T03:29:32.621Z,0
2017-07-12T03:29:58.176Z,0
2017-07-12T03:30:23.749Z,0
2017-07-12T03:30:49.301Z,0
2017-07-12T03:31:14.949Z,0
2017-07-12T03:31:40.536Z,0
2017-07-12T03:32:06.104Z,0
2017-07-12T03:32:31.662Z,0
2017-07-12T03:32:57.342Z,0
2017-07-12T03:33:22.914Z,0
2017-07-12T03:33:48.475Z,0
2017-07-12T03:34:14.079Z,0
2017-07-12T03:34:39.649Z,0
2017-07-12T03:35:05.276Z,0
2017-07-12T03:35:30.877Z,0
2017-07-12T03:35:56.451Z,0
2017-07-12T03:36:22.001Z,0
2017-07-12T03:36:47.565Z,0
2017-07-12T03:37:13.138Z,0
2017-07-12T03:37:38.701Z,0
2017-07-12T03:38:04.324Z,0
2017-07-12T03:38:29.881Z,0
2017-07-12T03:38:55.489Z,0
2017-07-12T03:39:21.001Z,0
2017-07-12T03:39:46.646Z,0
2017-07-12T03:40:12.217Z,0
2017-07-12T03:40:37.792Z,0
2017-07-12T03:41:03.356Z,0
2017-07-12T03:41:28.925Z,0
2017-07-12T03:41:54.472Z,0
2017-07-12T03:42:20.130Z,0
2017-07-12T03:42:45.736Z,0
2017-07-12T03:43:11.296Z,0
2017-07-12T03:43:36.855Z,0
2017-07-12T03:44:02.424Z,0
2017-07-12T03:44:27.986Z,0
2017-07-12T03:44:53.557Z,0
2017-07-12T03:45:19.123Z,0
2017-07-12T03:45:44.698Z,0
2017-07-12T03:46:10.304Z,0
2017-07-12T03:46:35.849Z,0
2017-07-12T03:47:01.432Z,0
2017-07-12T03:47:27.004Z,0
2017-07-12T03:47:52.567Z,0
2017-07-12T03:48:18.145Z,0
2017-07-12T03:48:43.798Z,0
2017-07-12T03:49:09.303Z,0
2017-07-12T03:49:34.870Z,0
2017-07-12T03:50:00.435Z,0
2017-07-12T03:50:25.994Z,0
2017-07-12T03:50:51.543Z,0
2017-07-12T03:51:17.108Z,0
2017-07-12T03:51:42.663Z,0
2017-07-12T03:52:08.227Z,0
2017-07-12T03:52:33.807Z,0
2017-07-12T03:52:59.384Z,0
2017-07-12T03:53:24.995Z,0
2017-07-12T03:53:50.560Z,0
2017-07-12T03:54:16.108Z,0
2017-07-12T03:54:41.663Z,0
2017-07-12T03:55:07.261Z,0
2017-07-12T03:55:32.817Z,0
2017-07-12T03:55:58.463Z,0
2017-07-12T03:56:24.063Z,0
2017-07-12T03:56:49.629Z,0
2017-07-12T03:57:15.184Z,0
2017-07-12T03:57:40.856Z,0
2017-07-12T03:58:06.415Z,0
2017-07-12T03:58:31.982Z,0
2017-07-12T03:58:57.565Z,0
2017-07-12T03:59:23.250Z,0
2017-07-12T03:59:48.821Z,0
2017-07-12T04:00:14.395Z,0
2017-07-12T04:00:39.966Z,0
2017-07-12T04:01:05.527Z,0
2017-07-12T04:01:31.092Z,0
2017-07-12T04:01:56.654Z,0
2017-07-12T04:02:22.225Z,0
2017-07-12T04:02:47.783Z,0
2017-07-12T04:03:13.407Z,0
2017-07-12T04:03:38.957Z,0
2017-07-12T04:04:04.556Z,0
2017-07-12T04:04:30.113Z,0
2017-07-12T04:04:55.685Z,0
2017-07-12T04:05:21.232Z,0
2017-07-12T04:05:46.810Z,0
2017-07-12T04:06:12.377Z,0
2017-07-12T04:06:37.984Z,0
2017-07-12T04:07:03.639Z,0
2017-07-12T04:07:29.216Z,0
2017-07-12T04:07:54.818Z,0
2017-07-12T04:08:20.515Z,0
2017-07-12T04:08:46.061Z,0
2017-07-12T04:09:11.615Z,0
2017-07-12T04:09:37.174Z,0
2017-07-12T04:10:02.746Z,0
2017-07-12T04:10:28.328Z,0
2017-07-12T04:10:53.895Z,0
2017-07-12T04:11:19.458Z,0
2017-07-12T04:11:45.024Z,0
2017-07-12T04:12:10.594Z,0
2017-07-12T04:12:36.162Z,0
2017-07-12T04:13:01.756Z,0
2017-07-12T04:13:27.321Z,0
2017-07-12T04:13:52.877Z,0
2017-07-12T04:14:18.439Z,0
2017-07-12T04:14:44.005Z,0
2017-07-12T04:15:09.575Z,0
2017-07-12T04:15:35.134Z,0
2017-07-12T04:16:00.702Z,0
2017-07-12T04:16:26.252Z,0
2017-07-12T04:16:51.832Z,0
2017-07-12T04:17:17.448Z,0
2017-07-12T04:17:43.044Z,0
2017-07-12T04:18:08.593Z,0
2017-07-12T04:18:34.152Z,0
2017-07-12T04:18:59.793Z,0
2017-07-12T04:19:25.354Z,0
2017-07-12T04:19:50.915Z,0
2017-07-12T04:20:16.521Z,0
2017-07-12T04:20:42.103Z,0
2017-07-12T04:21:07.656Z,0
2017-07-12T04:21:33.227Z,0
2017-07-12T04:21:58.805Z,0
2017-07-12T04:22:24.351Z,0
2017-07-12T04:22:49.952Z,0
2017-07-12T04:23:15.501Z,0
2017-07-12T04:23:41.075Z,0
2017-07-12T04:24:06.625Z,0
2017-07-12T04:24:32.186Z,0
2017-07-12T04:24:57.784Z,0
2017-07-12T04:25:23.406Z,0
2017-07-12T04:25:49.056Z,0
2017-07-12T04:26:14.616Z,4
2017-07-12T04:26:40.172Z,4
2017-07-12T04:27:05.741Z,4
2017-07-12T04:27:31.308Z,4
2017-07-12T04:27:56.859Z,4
2017-07-12T04:28:22.423Z,4
2017-07-12T04:28:47.994Z,4
2017-07-12T04:29:13.570Z,0
2017-07-12T04:29:39.124Z,0
2017-07-12T04:30:04.680Z,0
2017-07-12T04:30:30.277Z,0
2017-07-12T04:30:55.950Z,0
2017-07-12T04:31:21.508Z,0
2017-07-12T04:31:47.074Z,0
2017-07-12T04:32:12.687Z,4
2017-07-12T04:32:38.240Z,4
2017-07-12T04:33:03.807Z,4
2017-07-12T04:33:29.357Z,4
2017-07-12T04:33:54.923Z,4
2017-07-12T04:34:20.509Z,4
2017-07-12T04:34:46.085Z,4
2017-07-12T04:35:11.651Z,4
2017-07-12T04:35:37.246Z,4
2017-07-12T04:36:02.854Z,4
2017-07-12T04:36:28.429Z,4
2017-07-12T04:36:53.971Z,4
2017-07-12T04:37:19.668Z,4
2017-07-12T04:37:45.215Z,4
2017-07-12T04:38:10.775Z,4
2017-07-12T04:38:36.347Z,4
2017-07-12T04:39:01.918Z,4
2017-07-12T04:39:27.513Z,4
2017-07-12T04:39:53.099Z,4
2017-07-12T04:40:18.669Z,4
2017-07-12T04:40:44.231Z,0
2017-07-12T04:41:09.877Z,0
2017-07-12T04:41:35.432Z,4
2017-07-12T04:42:00.998Z,4
2017-07-12T04:42:26.578Z,4
2017-07-12T04:42:52.133Z,4
2017-07-12T04:43:17.695Z,8
2017-07-12T04:43:43.264Z,8
2017-07-12T04:44:08.821Z,8
2017-07-12T04:44:34.432Z,8
2017-07-12T04:45:53.844Z,4
2017-07-12T04:46:19.411Z,4
2017-07-12T04:46:44.976Z,4
2017-07-12T04:47:10.549Z,8
2017-07-12T04:47:36.114Z,4
2017-07-12T04:48:01.688Z,8
2017-07-12T04:48:27.245Z,8
2017-07-12T04:48:52.810Z,8
2017-07-12T04:49:18.571Z,8
2017-07-12T04:49:44.140Z,8
2017-07-12T04:50:09.714Z,8
2017-07-12T04:50:35.261Z,8
2017-07-12T04:51:00.902Z,8
2017-07-12T04:51:26.465Z,8
2017-07-12T04:51:52.028Z,12
2017-07-12T04:52:17.585Z,12
2017-07-12T04:52:43.142Z,8
2017-07-12T04:53:08.733Z,8
2017-07-12T04:53:34.367Z,12
2017-07-12T04:53:59.915Z,12
2017-07-12T04:54:25.464Z,12
2017-07-12T04:54:51.021Z,12
2017-07-12T04:55:16.583Z,12
2017-07-12T04:55:42.155Z,12
2017-07-12T04:56:07.735Z,12
2017-07-12T04:56:33.289Z,12
2017-07-12T04:56:58.850Z,12
2017-07-12T04:57:24.426Z,12
2017-07-12T04:57:49.953Z,12
2017-07-12T04:58:15.593Z,12
2017-07-12T04:58:41.144Z,12
2017-07-12T04:59:06.700Z,12
2017-07-12T04:59:32.321Z,12
2017-07-12T04:59:57.881Z,12
2017-07-12T05:00:23.443Z,12
2017-07-12T05:00:49.031Z,12
2017-07-12T05:01:14.601Z,8
2017-07-12T05:01:40.213Z,8
2017-07-12T05:02:05.751Z,12
2017-07-12T05:02:31.301Z,12
2017-07-12T05:02:56.866Z,12
2017-07-12T05:03:22.432Z,12
2017-07-12T05:03:48.002Z,12
2017-07-12T05:04:13.565Z,12
2017-07-12T05:04:39.245Z,8
2017-07-12T05:05:04.852Z,8
2017-07-12T05:05:30.398Z,8
2017-07-12T05:05:55.942Z,12
2017-07-12T05:06:21.506Z,12
2017-07-12T05:06:47.067Z,8
2017-07-12T05:07:12.630Z,12
2017-07-12T05:07:38.216Z,12
2017-07-12T05:08:03.785Z,8
2017-07-12T05:08:29.356Z,8
2017-07-12T05:08:54.918Z,8
2017-07-12T05:09:20.459Z,8
2017-07-12T05:09:46.040Z,12
2017-07-12T05:10:11.653Z,12
2017-07-12T05:10:37.154Z,8
2017-07-12T05:11:02.854Z,12
2017-07-12T05:11:28.476Z,12
2017-07-12T05:11:54.204Z,12
2017-07-12T05:12:19.770Z,12
2017-07-12T05:12:45.363Z,12
2017-07-12T05:13:10.944Z,12
2017-07-12T05:13:36.507Z,16
2017-07-12T05:14:02.070Z,12
2017-07-12T05:15:26.557Z,16
2017-07-12T05:16:35.454Z,12
2017-07-12T05:17:01.030Z,16
2017-07-12T05:17:26.588Z,16
2017-07-12T05:17:52.142Z,16
2017-07-12T05:18:17.758Z,16
2017-07-12T05:18:43.335Z,16
2017-07-12T05:19:08.896Z,16
2017-07-12T05:19:34.461Z,20
2017-07-12T05:20:00.035Z,16
2017-07-12T05:20:25.683Z,20
2017-07-12T05:20:51.233Z,16
2017-07-12T05:21:16.804Z,20
2017-07-12T05:21:42.361Z,20
2017-07-12T05:22:07.983Z,20
2017-07-12T05:22:33.561Z,20
2017-07-12T05:22:59.134Z,20
2017-07-12T05:23:24.701Z,20
2017-07-12T05:23:50.257Z,20
2017-07-12T05:24:15.823Z,24
2017-07-12T05:24:41.387Z,24
2017-07-12T05:25:06.976Z,24
2017-07-12T05:25:32.521Z,24
2017-07-12T05:25:58.065Z,20
2017-07-12T05:26:23.620Z,20
2017-07-12T05:26:49.191Z,20
2017-07-12T05:27:14.750Z,20
2017-07-12T05:27:40.310Z,24
2017-07-12T05:28:05.942Z,24
2017-07-12T05:28:31.514Z,24
2017-07-12T05:28:57.080Z,24
2017-07-12T05:29:22.644Z,20
2017-07-12T05:29:48.256Z,20
2017-07-12T05:30:13.830Z,20
2017-07-12T05:30:39.406Z,24
2017-07-12T05:31:04.979Z,24
2017-07-12T05:31:30.547Z,24
2017-07-12T05:31:56.089Z,24
2017-07-12T05:32:21.666Z,24
2017-07-12T05:32:47.237Z,24
2017-07-12T05:33:12.872Z,24
2017-07-12T05:33:38.435Z,24
2017-07-12T05:34:03.984Z,24
2017-07-12T05:34:29.550Z,24
2017-07-12T05:34:55.233Z,24
2017-07-12T05:35:20.799Z,24
2017-07-12T05:35:46.382Z,24
2017-07-12T05:36:11.935Z,24
2017-07-12T05:36:37.514Z,20
2017-07-12T05:37:03.107Z,20
2017-07-12T05:37:28.672Z,20
2017-07-12T05:37:54.372Z,24
2017-07-12T05:38:19.943Z,24
2017-07-12T05:38:45.520Z,24
2017-07-12T05:39:11.083Z,24
2017-07-12T05:39:36.655Z,24
2017-07-12T05:40:02.224Z,24
2017-07-12T05:40:27.764Z,24
2017-07-12T05:40:53.345Z,24
2017-07-12T05:41:18.913Z,24
2017-07-12T05:41:44.461Z,24
2017-07-12T05:42:10.029Z,24
2017-07-12T05:42:35.593Z,24
2017-07-12T05:43:01.173Z,24
2017-07-12T05:43:26.728Z,24
2017-07-12T05:43:52.291Z,24
2017-07-12T05:44:17.917Z,20
2017-07-12T05:44:43.432Z,20
2017-07-12T05:45:08.984Z,24
2017-07-12T05:45:34.538Z,24
2017-07-12T05:46:00.099Z,24
2017-07-12T05:46:25.658Z,20
2017-07-12T05:46:51.215Z,20
2017-07-12T05:47:16.766Z,20
2017-07-12T05:47:42.333Z,24
2017-07-12T05:48:07.961Z,24
2017-07-12T05:48:33.534Z,24
2017-07-12T05:48:59.100Z,24
2017-07-12T05:49:24.671Z,24
2017-07-12T05:49:50.222Z,20
2017-07-12T05:50:15.779Z,20
2017-07-12T05:50:41.442Z,24
2017-07-12T05:51:07.004Z,24
2017-07-12T05:51:32.562Z,24
2017-07-12T05:51:58.132Z,20
2017-07-12T05:52:23.679Z,24
2017-07-12T05:52:49.254Z,24
2017-07-12T05:53:14.844Z,24
2017-07-12T05:53:40.425Z,28
2017-07-12T05:54:05.975Z,24
2017-07-12T05:54:31.662Z,28
2017-07-12T05:54:57.236Z,24
2017-07-12T05:55:22.793Z,24
2017-07-12T05:55:48.345Z,28
2017-07-12T05:56:13.919Z,28
2017-07-12T05:56:39.493Z,24
2017-07-12T05:57:05.047Z,24
2017-07-12T05:57:30.623Z,28
2017-07-12T05:57:56.189Z,28
2017-07-12T05:58:21.778Z,28
2017-07-12T05:58:47.330Z,28
2017-07-12T05:59:12.881Z,32
2017-07-12T05:59:38.546Z,28
2017-07-12T06:00:04.115Z,28
2017-07-12T06:00:29.674Z,32
2017-07-12T06:00:55.248Z,28
2017-07-12T06:01:20.813Z,28
2017-07-12T06:01:46.367Z,28
2017-07-12T06:02:12.053Z,24
2017-07-12T06:02:37.612Z,24
2017-07-12T06:03:03.179Z,24
2017-07-12T06:03:28.746Z,24
2017-07-12T06:03:54.316Z,24
2017-07-12T06:04:19.885Z,24
2017-07-12T06:04:45.468Z,24
2017-07-12T06:05:11.037Z,20
2017-07-12T06:05:36.621Z,20
2017-07-12T06:06:02.210Z,20
2017-07-12T06:06:27.794Z,24
2017-07-12T06:06:53.383Z,20
2017-07-12T06:07:18.940Z,20
2017-07-12T06:07:44.543Z,24
2017-07-12T06:08:10.109Z,24
2017-07-12T06:08:35.693Z,24
2017-07-12T06:09:01.251Z,24
2017-07-12T06:09:26.829Z,24
2017-07-12T06:09:52.382Z,24
2017-07-12T06:10:17.995Z,24
2017-07-12T06:10:43.623Z,24
2017-07-12T06:11:09.207Z,28
2017-07-12T06:11:34.762Z,24
2017-07-12T06:12:00.323Z,24
2017-07-12T06:12:25.874Z,24
2017-07-12T06:12:51.445Z,28
2017-07-12T06:13:17.016Z,28
2017-07-12T06:13:42.604Z,28
2017-07-12T06:14:08.169Z,28
2017-07-12T06:14:33.734Z,28
2017-07-12T06:14:59.295Z,28
2017-07-12T06:15:24.918Z,28
2017-07-12T06:15:50.481Z,24
2017-07-12T06:16:16.067Z,24
2017-07-12T06:16:41.655Z,24
2017-07-12T06:17:07.239Z,24
2017-07-12T06:17:32.810Z,24
2017-07-12T06:17:58.365Z,28